Time;durP1;ratioP1;P1;durP2;ratioP2;P2;SDS_P1;SDS_P2;PMS_P1;PMS_P2;Temp;Humidity;BMP_temperature;BMP_pressure;BME280_temperature;BME280_humidity;BME280_pressure;Samples;Min_cycle;Max_cycle;Signal;HPM_P1;HPM_P2
2023/10/31 00:02:09;;;;;;;28.20;13.52;;;12.90;99.90;;;;;;4936700;29;20128;-87
2023/10/31 00:04:35;;;;;;;28.73;13.32;;;10.70;99.90;;;;;;4939450;28;20079;-87
2023/10/31 00:07:00;;;;;;;31.80;13.57;;;11.50;99.90;;;;;;4968975;28;20038;-87
2023/10/31 00:09:28;;;;;;;34.78;14.05;;;12.90;99.90;;;;;;4974207;28;20081;-87
2023/10/31 00:11:54;;;;;;;30.75;13.90;;;12.90;99.90;;;;;;4956246;28;20134;-87
2023/10/31 00:14:20;;;;;;;27.83;13.80;;;12.90;99.90;;;;;;4976483;28;20131;-87
2023/10/31 00:16:48;;;;;;;27.88;13.73;;;11.50;99.90;;;;;;4959247;28;20391;-87
2023/10/31 00:19:14;;;;;;;34.95;14.75;;;12.70;99.90;;;;;;4958214;28;20081;-86
2023/10/31 00:21:40;;;;;;;34.47;14.07;;;11.70;99.90;;;;;;4959275;28;20070;-87
2023/10/31 00:24:06;;;;;;;29.67;13.63;;;11.50;99.90;;;;;;4958935;28;20043;-87
2023/10/31 00:26:31;;;;;;;36.58;15.45;;;11.50;99.90;;;;;;4957890;28;20087;-87
2023/10/31 00:28:57;;;;;;;35.33;15.10;;;11.80;99.90;;;;;;4959510;28;20483;-86
2023/10/31 00:31:22;;;;;;;48.05;15.60;;;11.50;99.90;;;;;;4957608;28;20049;-87
2023/10/31 00:33:48;;;;;;;35.42;14.65;;;11.60;99.90;;;;;;4979434;28;20446;-87
2023/10/31 00:36:14;;;;;;;39.92;15.93;;;11.50;99.90;;;;;;4976307;28;20134;-86
2023/10/31 00:38:39;;;;;;;39.80;15.65;;;11.60;99.90;;;;;;4958352;28;20082;-86
2023/10/31 00:41:05;;;;;;;36.72;14.93;;;11.50;99.90;;;;;;4975706;28;20050;-87
2023/10/31 00:43:31;;;;;;;36.47;14.90;;;11.50;99.90;;;;;;4978155;28;20050;-86
2023/10/31 00:45:56;;;;;;;36.97;15.50;;;11.50;99.90;;;;;;4995122;28;20042;-86
2023/10/31 00:48:22;;;;;;;42.00;15.38;;;11.50;99.90;;;;;;4977873;28;20601;-86
2023/10/31 00:50:48;;;;;;;38.65;15.88;;;11.60;99.90;;;;;;4978049;28;20084;-86
2023/10/31 00:53:14;;;;;;;45.25;16.35;;;12.20;99.90;;;;;;4994439;28;20089;-85
2023/10/31 00:55:40;;;;;;;62.75;16.95;;;11.70;99.90;;;;;;4976982;28;20073;-85
2023/10/31 00:58:06;;;;;;;62.47;17.25;;;11.50;99.90;;;;;;4977875;28;20502;-86
2023/10/31 01:00:31;;;;;;;50.60;17.15;;;12.80;99.90;;;;;;4977101;28;20398;-86
2023/10/31 01:02:57;;;;;;;54.90;16.45;;;11.50;99.90;;;;;;4978088;28;20038;-87
2023/10/31 01:05:23;;;;;;;54.47;16.52;;;11.50;99.90;;;;;;4977301;28;20137;-87
2023/10/31 01:07:48;;;;;;;42.80;15.70;;;11.50;99.90;;;;;;4994548;28;20046;-86
2023/10/31 01:10:14;;;;;;;55.10;16.80;;;11.50;99.90;;;;;;4977405;28;20100;-86
2023/10/31 01:12:40;;;;;;;60.58;18.45;;;11.90;99.90;;;;;;4977818;28;20046;-86
2023/10/31 01:15:06;;;;;;;59.47;18.05;;;11.50;99.90;;;;;;4977319;28;20058;-86
2023/10/31 01:17:32;;;;;;;58.72;18.05;;;11.50;99.90;;;;;;4977126;28;20053;-86
2023/10/31 01:19:57;;;;;;;56.45;17.85;;;12.60;99.90;;;;;;4977710;28;20046;-87
2023/10/31 01:22:23;;;;;;;69.93;18.85;;;11.80;99.90;;;;;;4993829;28;20056;-86
2023/10/31 01:24:49;;;;;;;50.38;17.17;;;11.60;99.90;;;;;;4974948;28;20068;-86
2023/10/31 01:27:14;;;;;;;67.65;17.90;;;12.70;99.90;;;;;;4957977;28;20101;-87
2023/10/31 01:29:40;;;;;;;60.58;16.20;;;11.60;99.90;;;;;;4957723;28;20097;-86
2023/10/31 01:32:06;;;;;;;53.58;17.02;;;11.60;99.90;;;;;;4957961;28;20046;-86
2023/10/31 01:34:31;;;;;;;53.75;17.95;;;11.60;99.90;;;;;;4957287;28;20051;-86
2023/10/31 01:36:57;;;;;;;67.55;19.13;;;11.60;99.90;;;;;;4957961;28;20098;-87
2023/10/31 01:39:23;;;;;;;69.85;18.45;;;11.60;99.90;;;;;;4957478;28;20499;-86
2023/10/31 01:41:48;;;;;;;77.38;18.75;;;11.60;99.90;;;;;;4957348;28;20074;-86
2023/10/31 01:44:14;;;;;;;76.25;19.13;;;11.80;99.90;;;;;;4974836;28;20435;-86
2023/10/31 01:46:40;;;;;;;63.30;17.90;;;11.60;99.90;;;;;;4958066;28;20050;-86
2023/10/31 01:49:06;;;;;;;66.78;19.08;;;11.60;99.90;;;;;;4957284;28;20117;-86
2023/10/31 01:51:31;;;;;;;57.83;18.17;;;12.40;99.90;;;;;;4957284;28;20073;-86
2023/10/31 01:53:57;;;;;;;60.03;18.10;;;11.60;99.90;;;;;;4974962;28;20055;-86
2023/10/31 01:56:24;;;;;;;93.75;18.35;;;11.60;99.90;;;;;;4956582;28;20074;-86
2023/10/31 01:58:50;;;;;;;63.45;17.88;;;11.70;99.90;;;;;;4975017;28;20053;-86
2023/10/31 02:01:16;;;;;;;80.20;18.95;;;12.20;99.90;;;;;;4957424;28;20043;-86
2023/10/31 02:03:42;;;;;;;68.53;17.95;;;12.10;99.90;;;;;;4959781;28;20486;-86
2023/10/31 02:06:07;;;;;;;64.35;18.83;;;11.70;99.90;;;;;;4957470;28;20053;-86
2023/10/31 02:08:33;;;;;;;13.38;4.80;;;11.70;99.90;;;;;;4959431;28;20094;-86
2023/10/31 02:10:59;;;;;;;9.07;2.65;;;11.90;99.90;;;;;;4956581;28;20483;-86
2023/10/31 02:13:25;;;;;;;7.30;2.17;;;11.20;99.90;;;;;;4974317;28;20039;-85
2023/10/31 02:15:51;;;;;;;6.13;1.70;;;12.30;99.90;;;;;;4957187;28;20487;-86
2023/10/31 02:18:16;;;;;;;4.55;1.45;;;10.80;99.90;;;;;;4956337;28;20043;-86
2023/10/31 02:20:42;;;;;;;2.25;1.10;;;10.80;99.90;;;;;;4974291;28;20051;-86
2023/10/31 02:23:08;;;;;;;1.90;1.00;;;10.60;99.90;;;;;;4957363;28;20372;-87
2023/10/31 02:25:33;;;;;;;1.42;0.90;;;10.50;99.90;;;;;;4955813;28;20130;-86
2023/10/31 02:27:59;;;;;;;2.22;1.13;;;11.40;99.90;;;;;;4957351;28;20061;-86
2023/10/31 02:30:26;;;;;;;1.48;0.90;;;10.40;99.90;;;;;;4974326;28;20069;-86
2023/10/31 02:32:52;;;;;;;1.15;0.90;;;10.30;99.90;;;;;;4956407;28;20129;-86
2023/10/31 02:35:18;;;;;;;2.38;0.90;;;11.20;99.90;;;;;;4956373;28;20085;-86
2023/10/31 02:37:45;;;;;;;2.20;0.90;;;10.20;99.90;;;;;;4957359;28;20047;-86
2023/10/31 02:40:11;;;;;;;1.00;0.85;;;10.80;99.90;;;;;;4955567;28;20112;-86
2023/10/31 02:45:41;;;;;;;3.83;1.10;;;10.10;99.90;;;;;;4950456;28;20054;-86
2023/10/31 02:48:07;;;;;;;1.73;1.00;;;11.30;99.90;;;;;;4956999;28;20047;-86
2023/10/31 02:50:32;;;;;;;3.15;1.20;;;10.50;99.90;;;;;;4955842;28;20133;-86
2023/10/31 02:52:58;;;;;;;4.32;1.30;;;10.00;99.90;;;;;;4956198;28;20065;-86
2023/10/31 02:55:24;;;;;;;5.18;1.40;;;11.00;99.90;;;;;;4955982;28;20059;-87
2023/10/31 02:57:49;;;;;;;4.45;1.60;;;9.90;99.90;;;;;;4956765;28;20133;-86
2023/10/31 03:00:15;;;;;;;7.93;1.52;;;9.80;99.90;;;;;;4955546;28;20567;-85
2023/10/31 03:02:41;;;;;;;6.70;1.60;;;9.80;99.90;;;;;;4956511;28;20054;-86
2023/10/31 03:05:06;;;;;;;3.10;1.20;;;10.60;99.90;;;;;;4955742;28;20051;-86
2023/10/31 03:07:32;;;;;;;5.72;1.58;;;9.80;99.90;;;;;;4955506;28;20487;-87
2023/10/31 03:09:58;;;;;;;4.53;1.30;;;9.90;99.90;;;;;;4956992;28;20042;-86
2023/10/31 03:12:24;;;;;;;4.25;1.52;;;10.90;99.90;;;;;;4955930;28;20047;-86
2023/10/31 03:14:49;;;;;;;7.43;1.60;;;10.40;99.90;;;;;;4955951;28;20560;-86
2023/10/31 03:17:15;;;;;;;4.60;1.52;;;9.60;99.90;;;;;;4973629;28;20126;-86
2023/10/31 03:19:41;;;;;;;7.97;2.15;;;9.60;99.90;;;;;;4972879;28;20043;-86
2023/10/31 03:22:06;;;;;;;6.72;1.52;;;9.50;99.90;;;;;;4955813;28;20039;-86
2023/10/31 03:24:32;;;;;;;6.78;1.60;;;9.50;99.90;;;;;;4973228;28;20046;-86
2023/10/31 03:26:57;;;;;;;6.03;1.60;;;9.50;99.90;;;;;;4956187;28;20422;-85
2023/10/31 03:29:23;;;;;;;6.32;1.60;;;9.40;99.90;;;;;;4972520;28;20047;-84
2023/10/31 03:31:48;;;;;;;8.40;1.88;;;9.50;99.90;;;;;;4973083;28;20047;-85
2023/10/31 03:34:14;;;;;;;8.35;2.30;;;9.50;99.90;;;;;;4954624;28;20430;-84
2023/10/31 03:36:40;;;;;;;10.65;2.47;;;10.40;99.90;;;;;;4955016;28;20042;-85
2023/10/31 03:39:05;;;;;;;10.23;2.72;;;9.40;99.90;;;;;;4972953;28;20514;-85
2023/10/31 03:41:31;;;;;;;10.30;2.78;;;10.30;99.90;;;;;;4972085;28;20142;-85
2023/10/31 03:43:56;;;;;;;11.90;3.13;;;10.60;99.90;;;;;;4972890;28;20111;-85
2023/10/31 03:46:22;;;;;;;9.27;3.03;;;9.50;99.90;;;;;;4957358;28;20054;-85
2023/10/31 03:48:48;;;;;;;10.27;3.20;;;9.50;99.90;;;;;;4959353;28;20039;-85
2023/10/31 03:51:13;;;;;;;8.98;3.05;;;9.50;99.90;;;;;;4959222;28;20046;-85
2023/10/31 03:53:39;;;;;;;10.95;3.15;;;9.50;99.90;;;;;;4959681;28;20058;-86
2023/10/31 03:56:05;;;;;;;10.23;3.10;;;9.50;99.90;;;;;;4976755;28;20057;-86
2023/10/31 03:58:30;;;;;;;8.88;2.95;;;9.50;99.90;;;;;;4959366;28;20046;-86
2023/10/31 04:00:56;;;;;;;9.27;2.65;;;10.40;99.90;;;;;;4973427;28;20046;-85
2023/10/31 04:03:22;;;;;;;8.88;2.47;;;10.20;99.90;;;;;;4977660;28;20046;-85
2023/10/31 04:05:47;;;;;;;10.02;2.70;;;9.50;99.90;;;;;;4995602;28;20042;-85
2023/10/31 04:08:13;;;;;;;8.75;2.80;;;9.50;99.90;;;;;;4978213;28;20042;-85
2023/10/31 04:10:38;;;;;;;8.50;2.30;;;9.50;99.90;;;;;;4968425;28;20062;-85
2023/10/31 04:13:41;;;;;;;9.95;2.90;;;9.50;99.90;;;;;;4959689;28;20054;-85
2023/10/31 04:16:07;;;;;;;9.43;2.85;;;9.70;99.90;;;;;;4959565;28;20047;-85
2023/10/31 04:18:33;;;;;;;9.25;2.65;;;9.60;99.90;;;;;;4957891;28;20078;-85
2023/10/31 04:20:58;;;;;;;9.02;2.80;;;9.60;99.90;;;;;;4959086;28;20239;-85
2023/10/31 04:23:24;;;;;;;11.95;3.10;;;10.60;99.90;;;;;;4958267;28;20136;-85
2023/10/31 04:25:52;;;;;;;10.02;3.38;;;9.60;99.90;;;;;;4959156;28;20133;-87
2023/10/31 04:28:18;;;;;;;11.93;3.10;;;9.60;99.90;;;;;;4959527;28;20130;-86
2023/10/31 04:30:44;;;;;;;10.85;3.00;;;10.70;99.90;;;;;;4958582;28;20440;-85
2023/10/31 04:33:10;;;;;;;10.50;3.10;;;9.60;99.90;;;;;;4958928;28;20479;-86
2023/10/31 04:35:35;;;;;;;9.35;3.35;;;9.60;99.90;;;;;;4958572;28;20046;-86
2023/10/31 04:38:01;;;;;;;10.93;3.45;;;10.40;99.90;;;;;;4958792;28;20151;-86
2023/10/31 04:40:26;;;;;;;10.70;3.58;;;9.60;99.90;;;;;;4975286;28;20057;-86
2023/10/31 04:43:04;;;;;;;9.23;2.95;;;9.60;99.90;;;;;;4995857;28;20490;-86
2023/10/31 04:45:30;;;;;;;9.30;2.33;;;9.60;99.90;;;;;;4977378;28;20113;-86
2023/10/31 04:47:55;;;;;;;8.88;2.67;;;11.20;99.90;;;;;;4978522;28;20050;-86
2023/10/31 04:50:21;;;;;;;8.88;2.88;;;9.60;99.90;;;;;;4977191;28;20490;-86
2023/10/31 04:52:47;;;;;;;10.20;2.83;;;9.60;99.90;;;;;;4977320;28;20371;-86
2023/10/31 04:55:12;;;;;;;10.40;3.47;;;9.60;99.90;;;;;;4977442;28;20050;-86
2023/10/31 04:57:38;;;;;;;8.63;3.22;;;9.70;99.90;;;;;;4995653;28;20058;-86
2023/10/31 05:00:06;;;;;;;10.30;3.10;;;9.60;99.90;;;;;;4977336;28;20414;-86
2023/10/31 05:02:32;;;;;;;7.10;2.20;;;9.60;99.90;;;;;;4977197;28;20050;-86
2023/10/31 05:04:57;;;;;;;7.40;2.13;;;9.60;99.90;;;;;;4980348;28;20125;-86
2023/10/31 05:07:23;;;;;;;8.03;2.70;;;9.60;99.90;;;;;;4977467;28;20475;-86
2023/10/31 05:09:49;;;;;;;8.30;2.37;;;10.60;99.90;;;;;;4977590;28;20042;-86
2023/10/31 05:12:15;;;;;;;8.80;2.60;;;9.70;99.90;;;;;;4994870;28;20092;-85
2023/10/31 05:14:53;;;;;;;7.37;2.20;;;9.60;99.90;;;;;;4996759;28;20489;-86
2023/10/31 05:17:18;;;;;;;8.33;2.50;;;10.30;99.90;;;;;;4977521;28;20050;-86
2023/10/31 05:19:44;;;;;;;8.13;2.47;;;11.10;99.90;;;;;;4977259;28;20380;-85
2023/10/31 05:22:22;;;;;;;8.68;2.20;;;10.70;99.90;;;;;;4977497;28;20056;-86
2023/10/31 05:24:57;;;;;;;6.35;2.10;;;11.20;99.90;;;;;;4977435;28;20047;-86
2023/10/31 05:27:23;;;;;;;7.93;2.33;;;10.70;99.90;;;;;;4976738;28;20099;-86
2023/10/31 05:29:48;;;;;;;8.18;2.20;;;9.60;99.90;;;;;;4977490;28;20046;-86
2023/10/31 05:32:14;;;;;;;10.25;2.38;;;9.60;99.90;;;;;;4994326;28;20417;-86
2023/10/31 05:34:40;;;;;;;9.50;2.38;;;10.80;99.90;;;;;;4976945;28;20398;-86
2023/10/31 05:37:06;;;;;;;8.80;2.30;;;9.60;99.90;;;;;;4977587;28;20046;-86
2023/10/31 05:39:31;;;;;;;6.78;2.05;;;10.80;99.90;;;;;;4977320;28;20042;-86
2023/10/31 05:41:57;;;;;;;7.20;2.30;;;9.50;99.90;;;;;;4966009;28;20039;-86
2023/10/31 05:44:22;;;;;;;9.00;2.30;;;9.50;99.90;;;;;;4957663;28;20050;-86
2023/10/31 05:46:49;;;;;;;10.75;2.60;;;10.50;99.90;;;;;;4957435;28;20050;-86
2023/10/31 05:49:14;;;;;;;9.00;2.50;;;9.50;99.90;;;;;;4956695;28;20047;-86
2023/10/31 05:51:40;;;;;;;7.38;2.25;;;11.00;99.90;;;;;;4958062;28;20113;-86
2023/10/31 05:54:07;;;;;;;8.63;2.67;;;9.60;99.90;;;;;;4957738;28;20055;-86
2023/10/31 05:56:33;;;;;;;9.02;2.90;;;9.50;99.90;;;;;;4974427;28;20050;-86
2023/10/31 05:59:18;;;;;;;8.20;3.08;;;9.50;99.90;;;;;;4958584;28;20043;-86
2023/10/31 06:01:44;;;;;;;13.15;3.80;;;9.60;99.90;;;;;;4959261;28;20117;-86
2023/10/31 06:04:10;;;;;;;12.85;4.00;;;11.00;99.90;;;;;;4956792;28;20495;-86
2023/10/31 06:06:38;;;;;;;11.98;4.13;;;10.40;99.90;;;;;;4957685;28;20085;-86
2023/10/31 06:09:04;;;;;;;12.30;4.10;;;9.50;99.90;;;;;;4962665;28;20045;-85
2023/10/31 06:11:30;;;;;;;14.55;4.50;;;9.50;99.90;;;;;;4975599;28;20409;-86
2023/10/31 06:13:55;;;;;;;9.38;3.58;;;9.60;99.90;;;;;;4975715;28;20062;-85
2023/10/31 06:16:21;;;;;;;12.25;4.10;;;10.30;99.90;;;;;;4991926;28;20042;-86
2023/10/31 06:18:47;;;;;;;10.05;3.40;;;10.30;99.90;;;;;;4993779;28;20042;-86
2023/10/31 06:21:12;;;;;;;9.65;3.95;;;9.60;99.90;;;;;;4975764;28;20038;-86
2023/10/31 06:23:38;;;;;;;13.45;4.10;;;9.60;99.90;;;;;;4993075;28;20039;-85
2023/10/31 06:26:04;;;;;;;12.32;4.10;;;9.60;99.90;;;;;;4977701;28;20050;-87
2023/10/31 06:28:30;;;;;;;11.75;3.72;;;9.60;99.90;;;;;;4994109;28;20053;-85
2023/10/31 06:30:55;;;;;;;12.77;3.83;;;9.60;99.90;;;;;;4975946;28;20042;-86
2023/10/31 06:33:21;;;;;;;10.63;4.00;;;9.60;99.90;;;;;;4993119;28;20105;-84
2023/10/31 06:35:47;;;;;;;10.95;3.85;;;9.60;99.90;;;;;;4993749;28;20042;-87
2023/10/31 06:38:13;;;;;;;12.15;3.83;;;9.60;99.90;;;;;;4977799;28;20092;-85
2023/10/31 06:40:38;;;;;;;9.95;3.42;;;9.60;99.90;;;;;;4976034;28;20089;-86
2023/10/31 06:43:04;;;;;;;9.73;3.22;;;10.80;99.90;;;;;;4976248;28;20093;-86
2023/10/31 06:45:29;;;;;;;9.80;3.10;;;9.50;99.90;;;;;;4978352;28;20050;-86
2023/10/31 06:48:10;;;;;;;10.23;3.20;;;10.50;99.90;;;;;;4976394;28;20105;-86
2023/10/31 06:50:35;;;;;;;10.88;3.13;;;9.70;99.90;;;;;;4976170;28;20042;-86
2023/10/31 06:53:01;;;;;;;10.52;3.05;;;10.40;99.90;;;;;;4975572;28;20569;-88
2023/10/31 06:55:27;;;;;;;9.27;3.10;;;9.50;99.90;;;;;;4975441;28;20061;-87
2023/10/31 06:57:52;;;;;;;10.50;3.17;;;10.10;99.90;;;;;;4993281;28;20133;-86
2023/10/31 07:00:18;;;;;;;11.23;3.92;;;9.90;99.90;;;;;;4992467;28;20042;-87
2023/10/31 07:02:43;;;;;;;11.77;4.80;;;9.50;99.90;;;;;;4976644;28;20129;-86
2023/10/31 07:05:09;;;;;;;19.20;11.00;;;9.70;99.90;;;;;;4992594;28;20046;-86
2023/10/31 07:07:35;;;;;;;18.52;10.65;;;10.00;99.90;;;;;;4976168;28;20521;-85
2023/10/31 07:10:00;;;;;;;16.08;8.60;;;10.90;99.90;;;;;;4975762;28;20461;-85
2023/10/31 07:12:26;;;;;;;13.07;6.43;;;10.40;99.90;;;;;;4974931;28;20047;-85
2023/10/31 07:14:51;;;;;;;13.82;7.80;;;9.50;99.90;;;;;;4993232;28;20050;-85
2023/10/31 07:17:17;;;;;;;13.10;5.78;;;9.50;99.90;;;;;;4974611;28;20050;-84
2023/10/31 07:19:43;;;;;;;28.33;16.67;;;10.70;99.90;;;;;;4974790;28;20050;-84
2023/10/31 07:22:08;;;;;;;59.42;40.08;;;10.10;99.90;;;;;;4979808;28;20053;-84
2023/10/31 07:24:36;;;;;;;20.88;13.65;;;10.80;99.90;;;;;;4996723;28;20042;-84
2023/10/31 07:27:01;;;;;;;13.05;7.18;;;9.60;99.90;;;;;;4979066;28;20104;-84
2023/10/31 07:29:27;;;;;;;11.23;4.13;;;9.60;99.90;;;;;;4979265;28;20046;-84
2023/10/31 07:31:52;;;;;;;10.90;3.92;;;10.50;99.90;;;;;;4979430;28;20046;-85
2023/10/31 07:34:19;;;;;;;12.43;5.95;;;10.50;99.90;;;;;;5180518;23;20043;-84
2023/10/31 07:36:44;;;;;;;9.73;3.85;;;9.70;99.90;;;;;;4940905;29;20130;-85
2023/10/31 07:39:12;;;;;;;19.75;13.40;;;9.70;99.90;;;;;;4940275;29;20130;-85
2023/10/31 07:41:38;;;;;;;11.52;4.80;;;9.90;99.90;;;;;;4956595;29;20043;-85
2023/10/31 07:44:04;;;;;;;13.23;7.63;;;10.50;99.90;;;;;;4957709;28;20039;-84
2023/10/31 07:46:29;;;;;;;12.48;7.53;;;9.70;99.90;;;;;;4940585;29;20047;-84
2023/10/31 07:48:55;;;;;;;28.90;20.58;;;10.40;99.90;;;;;;4935451;29;20499;-84
2023/10/31 07:51:21;;;;;;;26.42;21.83;;;9.80;99.90;;;;;;4925721;29;20052;-84
2023/10/31 07:53:46;;;;;;;13.18;6.18;;;9.80;99.90;;;;;;4936136;29;20140;-85
2023/10/31 07:56:16;;;;;;;14.32;7.50;;;9.80;99.90;;;;;;4939271;29;20098;-85
2023/10/31 07:58:42;;;;;;;16.85;6.85;;;9.90;99.90;;;;;;4940251;29;20090;-84
2023/10/31 08:01:11;;;;;;;11.30;5.47;;;9.90;99.90;;;;;;4932828;29;20063;-84
2023/10/31 08:03:39;;;;;;;13.98;5.93;;;10.00;99.90;;;;;;4931452;29;20388;-85
2023/10/31 08:06:07;;;;;;;16.20;7.77;;;10.00;99.90;;;;;;4957048;29;20106;-83
2023/10/31 08:08:33;;;;;;;13.30;6.83;;;10.00;99.90;;;;;;4935286;29;20048;-87
2023/10/31 08:10:58;;;;;;;13.68;7.65;;;10.10;99.90;;;;;;4958400;29;20046;-88
2023/10/31 08:13:24;;;;;;;20.45;12.30;;;11.50;99.90;;;;;;4939240;29;20043;-85
2023/10/31 08:15:50;;;;;;;19.13;10.45;;;10.10;99.90;;;;;;4955034;29;20496;-85
2023/10/31 08:21:03;;;;;;;16.42;8.32;;;10.20;99.90;;;;;;4958331;29;20055;-86
2023/10/31 08:23:29;;;;;;;21.98;12.35;;;10.20;99.90;;;;;;4939344;29;20051;-86
2023/10/31 08:25:55;;;;;;;19.65;11.60;;;10.30;99.90;;;;;;4939679;29;20484;-85
2023/10/31 08:28:21;;;;;;;20.80;13.27;;;10.30;99.90;;;;;;4939531;29;20408;-86
2023/10/31 08:30:46;;;;;;;15.38;6.93;;;10.40;99.90;;;;;;4939151;29;20059;-86
2023/10/31 08:33:12;;;;;;;16.07;8.87;;;10.40;99.90;;;;;;4938678;29;20046;-88
2023/10/31 08:35:38;;;;;;;17.75;9.52;;;10.70;99.90;;;;;;4939096;29;20058;-88
2023/10/31 08:38:04;;;;;;;23.63;14.27;;;11.90;99.90;;;;;;4938546;29;20089;-86
2023/10/31 08:40:29;;;;;;;15.40;7.43;;;11.70;99.90;;;;;;4939591;29;20419;-88
2023/10/31 08:42:55;;;;;;;12.65;7.32;;;11.20;99.90;;;;;;4939301;29;20047;-88
2023/10/31 08:45:21;;;;;;;18.05;12.23;;;12.20;99.90;;;;;;4938754;29;20075;-88
2023/10/31 08:47:47;;;;;;;14.95;6.40;;;10.50;99.90;;;;;;4939642;29;20531;-88
2023/10/31 08:50:13;;;;;;;18.95;12.43;;;10.70;99.90;;;;;;4939039;29;20130;-88
2023/10/31 08:52:39;;;;;;;14.93;7.85;;;11.80;99.90;;;;;;4939058;29;20078;-88
2023/10/31 08:55:06;;;;;;;13.50;6.35;;;10.90;99.90;;;;;;4939439;29;20440;-88
2023/10/31 08:57:33;;;;;;;15.25;9.23;;;11.10;99.90;;;;;;4938603;29;20496;-87
2023/10/31 08:59:59;;;;;;;9.93;3.20;;;11.90;99.90;;;;;;4939018;29;20055;-87
2023/10/31 09:02:25;;;;;;;8.73;2.78;;;12.30;99.90;;;;;;4939529;29;20458;-87
2023/10/31 09:05:00;;;;;;;10.95;3.97;;;12.20;99.90;;;;;;4939165;29;20122;-87
2023/10/31 09:07:25;;;;;;;9.27;2.95;;;10.50;99.90;;;;;;4939414;29;20054;-88
2023/10/31 09:09:52;;;;;;;10.68;3.28;;;12.10;99.90;;;;;;4939054;29;20036;-88
2023/10/31 09:12:18;;;;;;;15.25;6.43;;;11.50;99.90;;;;;;4937776;29;20099;-88
2023/10/31 09:14:44;;;;;;;8.20;2.53;;;12.80;99.90;;;;;;4938717;29;20045;-88
2023/10/31 09:17:09;;;;;;;8.32;2.80;;;13.00;99.90;;;;;;4933433;29;20054;-88
2023/10/31 09:19:35;;;;;;;7.80;2.50;;;11.60;99.90;;;;;;4929471;28;20130;-88
2023/10/31 09:22:01;;;;;;;4.70;1.60;;;12.70;99.90;;;;;;4924619;29;20059;-88
2023/10/31 09:24:26;;;;;;;11.05;4.55;;;12.40;99.90;;;;;;4929302;29;20050;-88
2023/10/31 09:27:07;;;;;;;8.05;2.35;;;11.50;99.90;;;;;;4922108;29;20082;-86
2023/10/31 09:29:33;;;;;;;9.57;2.20;;;12.80;99.90;;;;;;4937842;29;20047;-87
2023/10/31 09:31:59;;;;;;;7.95;2.03;;;12.50;99.90;;;;;;4939289;29;20047;-88
2023/10/31 09:34:24;;;;;;;7.97;1.88;;;13.10;99.90;;;;;;4940038;28;20051;-89
2023/10/31 09:36:50;;;;;;;6.38;1.70;;;11.90;99.90;;;;;;4942939;29;20498;-87
2023/10/31 09:39:16;;;;;;;6.03;1.50;;;13.20;99.90;;;;;;4941142;29;20075;-88
2023/10/31 09:41:41;;;;;;;4.28;1.35;;;13.20;99.90;;;;;;4938872;29;20135;-89
2023/10/31 09:44:07;;;;;;;5.55;1.60;;;11.90;99.90;;;;;;4954475;28;20039;-89
2023/10/31 09:46:34;;;;;;;7.65;2.22;;;13.10;99.90;;;;;;4940995;29;20051;-87
2023/10/31 09:49:00;;;;;;;8.43;2.13;;;13.20;99.90;;;;;;4952223;29;20484;-88
2023/10/31 09:51:27;;;;;;;4.45;1.60;;;11.60;99.90;;;;;;4938251;29;20051;-88
2023/10/31 09:53:55;;;;;;;6.10;2.42;;;13.50;99.90;;;;;;4937605;29;20049;-87
2023/10/31 09:56:22;;;;;;;4.18;1.30;;;12.80;99.90;;;;;;4935662;29;20492;-88
2023/10/31 09:58:47;;;;;;;8.45;3.70;;;13.60;99.90;;;;;;4938123;29;20043;-87
2023/10/31 10:01:14;;;;;;;11.27;5.28;;;13.10;99.90;;;;;;4936858;29;20135;-88
2023/10/31 10:03:40;;;;;;;6.25;1.95;;;12.00;99.90;;;;;;4938525;29;20047;-88
2023/10/31 10:06:06;;;;;;;5.38;1.00;;;13.30;99.90;;;;;;4938391;29;20046;-89
2023/10/31 10:08:36;;;;;;;6.85;2.15;;;11.80;99.90;;;;;;4929349;29;20078;-88
2023/10/31 10:11:02;;;;;;;5.60;1.95;;;13.00;99.90;;;;;;4929784;29;20094;-88
2023/10/31 10:13:28;;;;;;;6.70;1.48;;;11.80;99.90;;;;;;4937933;29;20047;-89
2023/10/31 10:16:04;;;;;;;3.80;1.40;;;11.80;99.90;;;;;;4937255;29;20101;-88
2023/10/31 10:18:32;;;;;;;7.20;1.38;;;11.70;99.90;;;;;;4937970;29;20047;-87
2023/10/31 10:21:01;;;;;;;5.60;1.70;;;12.60;99.90;;;;;;4937827;29;20051;-87
2023/10/31 10:23:27;;;;;;;5.38;1.15;;;11.60;99.90;;;;;;4937081;29;20063;-87
2023/10/31 10:25:54;;;;;;;5.05;1.27;;;13.00;99.90;;;;;;4937977;29;20059;-87
2023/10/31 10:28:20;;;;;;;1.98;0.85;;;12.80;99.90;;;;;;4937694;29;20051;-85
2023/10/31 10:30:47;;;;;;;4.28;1.20;;;12.90;99.90;;;;;;4937162;29;20476;-85
2023/10/31 10:33:14;;;;;;;5.07;1.70;;;11.30;99.90;;;;;;4954205;29;20440;-85
2023/10/31 10:35:39;;;;;;;6.40;2.75;;;12.70;99.90;;;;;;4956083;29;20069;-85
2023/10/31 10:38:22;;;;;;;4.57;1.10;;;12.10;99.90;;;;;;4952467;29;20114;-86
2023/10/31 10:40:48;;;;;;;4.65;1.38;;;11.20;99.90;;;;;;4953083;28;20065;-85
2023/10/31 10:43:17;;;;;;;4.45;1.30;;;11.30;99.90;;;;;;4936087;29;20036;-85
2023/10/31 10:45:43;;;;;;;3.30;0.90;;;11.30;99.90;;;;;;4935773;29;20079;-85
2023/10/31 10:48:15;;;;;;;3.97;1.30;;;12.40;99.90;;;;;;4954140;29;20558;-85
2023/10/31 10:50:43;;;;;;;3.42;1.02;;;11.90;99.90;;;;;;4934612;29;20399;-86
2023/10/31 10:53:24;;;;;;;1.48;0.80;;;12.60;99.90;;;;;;4936949;29;20061;-86
2023/10/31 10:55:52;;;;;;;4.05;1.10;;;12.10;99.90;;;;;;4953166;28;20051;-86
2023/10/31 10:58:41;;;;;;;4.10;1.15;;;12.20;99.90;;;;;;4936121;29;20053;-86
2023/10/31 11:01:08;;;;;;;6.25;1.40;;;11.30;99.90;;;;;;4935781;29;20129;-86
2023/10/31 11:03:34;;;;;;;4.47;1.25;;;12.00;99.90;;;;;;4936946;29;20054;-86
2023/10/31 11:06:00;;;;;;;3.45;1.10;;;12.80;99.90;;;;;;4935692;28;20043;-86
2023/10/31 11:08:27;;;;;;;2.63;0.80;;;12.30;99.90;;;;;;4936897;29;20122;-86
2023/10/31 11:10:54;;;;;;;5.45;1.83;;;12.80;99.90;;;;;;4939791;29;20051;-86
2023/10/31 11:13:21;;;;;;;3.72;1.10;;;12.70;99.90;;;;;;4935590;29;20119;-86
2023/10/31 11:15:51;;;;;;;1.90;0.85;;;11.20;99.90;;;;;;4937555;29;20039;-86
2023/10/31 11:18:17;;;;;;;2.20;0.90;;;11.60;99.90;;;;;;4953483;28;20051;-85
2023/10/31 11:20:43;;;;;;;5.00;1.05;;;12.60;99.90;;;;;;4936802;29;20046;-86
2023/10/31 11:23:09;;;;;;;3.08;0.80;;;12.20;99.90;;;;;;4937010;29;20047;-87
2023/10/31 11:25:43;;;;;;;3.78;1.20;;;12.10;99.90;;;;;;4936184;29;20482;-86
2023/10/31 11:28:13;;;;;;;;;;;11.10;99.90;;;;;;4937633;29;20066;-87
2023/10/31 11:30:40;;;;;;;5.50;1.38;;;11.10;99.90;;;;;;4939000;29;19925;-87
2023/10/31 11:33:05;;;;;;;6.32;1.02;;;11.10;99.90;;;;;;4955586;28;20056;-88
2023/10/31 11:35:33;;;;;;;5.43;1.45;;;12.70;99.90;;;;;;4935791;29;20058;-86
2023/10/31 11:38:07;;;;;;;5.00;1.20;;;11.70;99.90;;;;;;4936523;29;20039;-86
2023/10/31 11:40:33;;;;;;;6.00;1.30;;;11.60;99.90;;;;;;4935686;29;20476;-87
2023/10/31 11:43:04;;;;;;;5.75;1.75;;;11.30;99.90;;;;;;4953918;28;20051;-85
2023/10/31 11:45:38;;;;;;;7.13;1.70;;;11.40;99.90;;;;;;4936273;29;20054;-85
2023/10/31 11:48:04;;;;;;;4.85;1.30;;;12.50;99.90;;;;;;4936232;29;20086;-86
2023/10/31 11:50:32;;;;;;;7.45;2.25;;;11.40;99.90;;;;;;4936774;29;20055;-86
2023/10/31 11:53:04;;;;;;;6.78;1.50;;;12.60;99.90;;;;;;4936619;29;20086;-87
2023/10/31 11:55:38;;;;;;;7.18;1.63;;;11.40;99.90;;;;;;4936143;29;20059;-88
2023/10/31 11:58:25;;;;;;;4.65;1.55;;;11.30;99.90;;;;;;4954198;29;20106;-88
2023/10/31 12:00:52;;;;;;;6.53;1.42;;;11.40;99.90;;;;;;4936116;29;20055;-88
2023/10/31 12:03:20;;;;;;;5.57;1.30;;;12.90;99.90;;;;;;4936080;29;20123;-88
2023/10/31 12:06:05;;;;;;;3.67;1.02;;;11.90;99.90;;;;;;4936801;29;20481;-91
2023/10/31 12:08:32;;;;;;;7.10;1.75;;;11.40;99.90;;;;;;4937666;29;20056;-92
2023/10/31 12:11:27;;;;;;;3.63;1.30;;;12.90;99.90;;;;;;4939935;29;20062;-87
2023/10/31 12:13:54;;;;;;;5.22;1.63;;;11.50;99.90;;;;;;4939235;29;20071;-87
2023/10/31 12:16:24;;;;;;;9.27;4.65;;;12.20;99.90;;;;;;4938716;29;20122;-87
2023/10/31 12:19:06;;;;;;;8.75;2.38;;;11.50;99.90;;;;;;4939455;29;20110;-87
2023/10/31 12:21:46;;;;;;;6.00;1.42;;;11.40;99.90;;;;;;4938924;29;20047;-88
2023/10/31 12:24:14;;;;;;;11.18;5.80;;;11.40;99.90;;;;;;4939104;29;20436;-87
2023/10/31 12:26:41;;;;;;;5.13;1.40;;;12.70;99.90;;;;;;4939353;29;20059;-88
2023/10/31 12:29:08;;;;;;;6.05;1.50;;;12.80;99.90;;;;;;4938753;29;20482;-87
2023/10/31 12:31:34;;;;;;;8.90;2.80;;;12.20;99.90;;;;;;4939883;29;20554;-87
2023/10/31 12:34:06;;;;;;;5.90;1.85;;;12.50;99.90;;;;;;4940634;29;20071;-87
2023/10/31 12:36:33;;;;;;;2.45;1.00;;;11.30;99.90;;;;;;4939026;29;20455;-88
2023/10/31 12:38:59;;;;;;;3.67;1.10;;;12.60;99.90;;;;;;4945211;29;20496;-89
2023/10/31 12:41:26;;;;;;;3.55;1.17;;;12.60;99.90;;;;;;4942679;29;20043;-87
2023/10/31 12:43:52;;;;;;;3.45;1.30;;;11.90;99.90;;;;;;4939805;29;20439;-87
2023/10/31 12:46:27;;;;;;;5.63;1.50;;;11.50;99.90;;;;;;4939577;29;20055;-89
2023/10/31 12:48:52;;;;;;;4.88;1.40;;;11.20;99.90;;;;;;4943539;29;20467;-89